METAR Data
IDs: Format: Raw Decoded Include TAF

Data at: 1422 UTC 10 Jul 2020

METAR for:KEDU (Davis/University Arp, CA, US)
Text:KEDU 101415Z AUTO 00000KT 10SM CLR 18/12 A2995 RMK AO1
Temperature: 18.0°C ( 64°F)
Dewpoint: 12.0°C ( 54°F) [RH = 68%]
Pressure (altimeter):29.95 inches Hg (1014.3 mb)
Winds:calm
Visibility:10 or more sm (16+ km)
Ceiling:at least 12,000 feet AGL
Clouds:sky clear below 12,000 feet AGL
QC Flag:automated observation with no human augmentation
Text:KEDU 101355Z AUTO 00000KT 10SM CLR 17/12 A2994 RMK AO1
Temperature: 17.0°C ( 63°F)
Dewpoint: 12.0°C ( 54°F) [RH = 72%]
Pressure (altimeter):29.94 inches Hg (1014.0 mb)
Winds:calm
Visibility:10 or more sm (16+ km)
Ceiling:at least 12,000 feet AGL
Clouds:sky clear below 12,000 feet AGL
QC Flag:automated observation with no human augmentation
Text:KEDU 101335Z AUTO 00000KT 10SM CLR 15/12 A2994 RMK AO1
Temperature: 15.0°C ( 59°F)
Dewpoint: 12.0°C ( 54°F) [RH = 82%]
Pressure (altimeter):29.94 inches Hg (1014.0 mb)
Winds:calm
Visibility:10 or more sm (16+ km)
Ceiling:at least 12,000 feet AGL
Clouds:sky clear below 12,000 feet AGL
QC Flag:automated observation with no human augmentation
Text:KEDU 101315Z AUTO 00000KT 10SM CLR 14/10 A2994 RMK AO1
Temperature: 14.0°C ( 57°F)
Dewpoint: 10.0°C ( 50°F) [RH = 77%]
Pressure (altimeter):29.94 inches Hg (1014.0 mb)
Winds:calm
Visibility:10 or more sm (16+ km)
Ceiling:at least 12,000 feet AGL
Clouds:sky clear below 12,000 feet AGL
QC Flag:automated observation with no human augmentation
Text:KEDU 101255Z AUTO 00000KT 10SM CLR 14/11 A2993 RMK AO1
Temperature: 14.0°C ( 57°F)
Dewpoint: 11.0°C ( 52°F) [RH = 82%]
Pressure (altimeter):29.93 inches Hg (1013.6 mb)
Winds:calm
Visibility:10 or more sm (16+ km)
Ceiling:at least 12,000 feet AGL
Clouds:sky clear below 12,000 feet AGL
QC Flag:automated observation with no human augmentation
Text:KEDU 101235Z AUTO 00000KT 10SM CLR 15/11 A2992 RMK AO1
Temperature: 15.0°C ( 59°F)
Dewpoint: 11.0°C ( 52°F) [RH = 77%]
Pressure (altimeter):29.92 inches Hg (1013.3 mb)
Winds:calm
Visibility:10 or more sm (16+ km)
Ceiling:at least 12,000 feet AGL
Clouds:sky clear below 12,000 feet AGL
QC Flag:automated observation with no human augmentation
Text:KEDU 101215Z AUTO 00000KT 10SM CLR 15/10 A2991 RMK AO1
Temperature: 15.0°C ( 59°F)
Dewpoint: 10.0°C ( 50°F) [RH = 72%]
Pressure (altimeter):29.91 inches Hg (1013.0 mb)
Winds:calm
Visibility:10 or more sm (16+ km)
Ceiling:at least 12,000 feet AGL
Clouds:sky clear below 12,000 feet AGL
QC Flag:automated observation with no human augmentation
Text:KEDU 101155Z AUTO 24003KT 10SM CLR 16/11 A2990 RMK AO1
Temperature: 16.0°C ( 61°F)
Dewpoint: 11.0°C ( 52°F) [RH = 72%]
Pressure (altimeter):29.90 inches Hg (1012.6 mb)
Winds:from the WSW (240 degrees) at 3 MPH (3 knots; 1.5 m/s)
Visibility:10 or more sm (16+ km)
Ceiling:at least 12,000 feet AGL
Clouds:sky clear below 12,000 feet AGL
QC Flag:automated observation with no human augmentation
Text:KEDU 101135Z AUTO 21003KT 10SM CLR 15/11 A2990 RMK AO1
Temperature: 15.0°C ( 59°F)
Dewpoint: 11.0°C ( 52°F) [RH = 77%]
Pressure (altimeter):29.90 inches Hg (1012.6 mb)
Winds:from the SSW (210 degrees) at 3 MPH (3 knots; 1.5 m/s)
Visibility:10 or more sm (16+ km)
Ceiling:at least 12,000 feet AGL
Clouds:sky clear below 12,000 feet AGL
QC Flag:automated observation with no human augmentation
Text:KEDU 101115Z AUTO 16004KT 10SM CLR 15/11 A2989 RMK AO1
Temperature: 15.0°C ( 59°F)
Dewpoint: 11.0°C ( 52°F) [RH = 77%]
Pressure (altimeter):29.89 inches Hg (1012.3 mb)
Winds:from the SSE (160 degrees) at 5 MPH (4 knots; 2.1 m/s)
Visibility:10 or more sm (16+ km)
Ceiling:at least 12,000 feet AGL
Clouds:sky clear below 12,000 feet AGL
QC Flag:automated observation with no human augmentation
Text:KEDU 101055Z AUTO 15004KT 10SM CLR 16/11 A2989 RMK AO1
Temperature: 16.0°C ( 61°F)
Dewpoint: 11.0°C ( 52°F) [RH = 72%]
Pressure (altimeter):29.89 inches Hg (1012.3 mb)
Winds:from the SSE (150 degrees) at 5 MPH (4 knots; 2.1 m/s)
Visibility:10 or more sm (16+ km)
Ceiling:at least 12,000 feet AGL
Clouds:sky clear below 12,000 feet AGL
QC Flag:automated observation with no human augmentation
Text:KEDU 101035Z AUTO 00000KT 10SM CLR 16/11 A2988 RMK AO1
Temperature: 16.0°C ( 61°F)
Dewpoint: 11.0°C ( 52°F) [RH = 72%]
Pressure (altimeter):29.88 inches Hg (1011.9 mb)
Winds:calm
Visibility:10 or more sm (16+ km)
Ceiling:at least 12,000 feet AGL
Clouds:sky clear below 12,000 feet AGL
QC Flag:automated observation with no human augmentation
Text:KEDU 101015Z AUTO 12003KT 10SM CLR 17/12 A2988 RMK AO1
Temperature: 17.0°C ( 63°F)
Dewpoint: 12.0°C ( 54°F) [RH = 72%]
Pressure (altimeter):29.88 inches Hg (1011.9 mb)
Winds:from the ESE (120 degrees) at 3 MPH (3 knots; 1.5 m/s)
Visibility:10 or more sm (16+ km)
Ceiling:at least 12,000 feet AGL
Clouds:sky clear below 12,000 feet AGL
QC Flag:automated observation with no human augmentation
Text:KEDU 100955Z AUTO 13003KT 10SM CLR 17/11 A2988 RMK AO1
Temperature: 17.0°C ( 63°F)
Dewpoint: 11.0°C ( 52°F) [RH = 68%]
Pressure (altimeter):29.88 inches Hg (1011.9 mb)
Winds:from the SE (130 degrees) at 3 MPH (3 knots; 1.5 m/s)
Visibility:10 or more sm (16+ km)
Ceiling:at least 12,000 feet AGL
Clouds:sky clear below 12,000 feet AGL
QC Flag:automated observation with no human augmentation
Text:KEDU 100935Z AUTO 13003KT 10SM CLR 17/12 A2988 RMK AO1
Temperature: 17.0°C ( 63°F)
Dewpoint: 12.0°C ( 54°F) [RH = 72%]
Pressure (altimeter):29.88 inches Hg (1011.9 mb)
Winds:from the SE (130 degrees) at 3 MPH (3 knots; 1.5 m/s)
Visibility:10 or more sm (16+ km)
Ceiling:at least 12,000 feet AGL
Clouds:sky clear below 12,000 feet AGL
QC Flag:automated observation with no human augmentation
Text:KEDU 100915Z AUTO 00000KT 10SM CLR 17/12 A2987 RMK AO1
Temperature: 17.0°C ( 63°F)
Dewpoint: 12.0°C ( 54°F) [RH = 72%]
Pressure (altimeter):29.87 inches Hg (1011.6 mb)
Winds:calm
Visibility:10 or more sm (16+ km)
Ceiling:at least 12,000 feet AGL
Clouds:sky clear below 12,000 feet AGL
QC Flag:automated observation with no human augmentation
Text:KEDU 100855Z AUTO 11003KT 10SM CLR 18/11 A2987 RMK AO1
Temperature: 18.0°C ( 64°F)
Dewpoint: 11.0°C ( 52°F) [RH = 64%]
Pressure (altimeter):29.87 inches Hg (1011.6 mb)
Winds:from the ESE (110 degrees) at 3 MPH (3 knots; 1.5 m/s)
Visibility:10 or more sm (16+ km)
Ceiling:at least 12,000 feet AGL
Clouds:sky clear below 12,000 feet AGL
QC Flag:automated observation with no human augmentation
Text:KEDU 100835Z AUTO 00000KT 10SM CLR 19/11 A2987 RMK AO1
Temperature: 19.0°C ( 66°F)
Dewpoint: 11.0°C ( 52°F) [RH = 60%]
Pressure (altimeter):29.87 inches Hg (1011.6 mb)
Winds:calm
Visibility:10 or more sm (16+ km)
Ceiling:at least 12,000 feet AGL
Clouds:sky clear below 12,000 feet AGL
QC Flag:automated observation with no human augmentation
Text:KEDU 100815Z AUTO 20003KT 10SM CLR 19/12 A2986 RMK AO1
Temperature: 19.0°C ( 66°F)
Dewpoint: 12.0°C ( 54°F) [RH = 64%]
Pressure (altimeter):29.86 inches Hg (1011.3 mb)
Winds:from the SSW (200 degrees) at 3 MPH (3 knots; 1.5 m/s)
Visibility:10 or more sm (16+ km)
Ceiling:at least 12,000 feet AGL
Clouds:sky clear below 12,000 feet AGL
QC Flag:automated observation with no human augmentation
Text:KEDU 100755Z AUTO 20005KT 10SM CLR 20/12 A2986 RMK AO1
Temperature: 20.0°C ( 68°F)
Dewpoint: 12.0°C ( 54°F) [RH = 60%]
Pressure (altimeter):29.86 inches Hg (1011.3 mb)
Winds:from the SSW (200 degrees) at 6 MPH (5 knots; 2.6 m/s)
Visibility:10 or more sm (16+ km)
Ceiling:at least 12,000 feet AGL
Clouds:sky clear below 12,000 feet AGL
QC Flag:automated observation with no human augmentation
Text:KEDU 100735Z AUTO 20006KT 10SM CLR 20/12 A2986 RMK AO1
Temperature: 20.0°C ( 68°F)
Dewpoint: 12.0°C ( 54°F) [RH = 60%]
Pressure (altimeter):29.86 inches Hg (1011.3 mb)
Winds:from the SSW (200 degrees) at 7 MPH (6 knots; 3.1 m/s)
Visibility:10 or more sm (16+ km)
Ceiling:at least 12,000 feet AGL
Clouds:sky clear below 12,000 feet AGL
QC Flag:automated observation with no human augmentation
Text:KEDU 100715Z AUTO 20007KT 10SM CLR 22/11 A2986 RMK AO1
Temperature: 22.0°C ( 72°F)
Dewpoint: 11.0°C ( 52°F) [RH = 50%]
Pressure (altimeter):29.86 inches Hg (1011.3 mb)
Winds:from the SSW (200 degrees) at 8 MPH (7 knots; 3.6 m/s)
Visibility:10 or more sm (16+ km)
Ceiling:at least 12,000 feet AGL
Clouds:sky clear below 12,000 feet AGL
QC Flag:automated observation with no human augmentation
Text:KEDU 100655Z AUTO 22007KT 10SM CLR 23/10 A2986 RMK AO1
Temperature: 23.0°C ( 73°F)
Dewpoint: 10.0°C ( 50°F) [RH = 44%]
Pressure (altimeter):29.86 inches Hg (1011.3 mb)
Winds:from the SW (220 degrees) at 8 MPH (7 knots; 3.6 m/s)
Visibility:10 or more sm (16+ km)
Ceiling:at least 12,000 feet AGL
Clouds:sky clear below 12,000 feet AGL
QC Flag:automated observation with no human augmentation
Text:KEDU 100635Z AUTO 21004KT 10SM CLR 24/11 A2986 RMK AO1
Temperature: 24.0°C ( 75°F)
Dewpoint: 11.0°C ( 52°F) [RH = 44%]
Pressure (altimeter):29.86 inches Hg (1011.3 mb)
Winds:from the SSW (210 degrees) at 5 MPH (4 knots; 2.1 m/s)
Visibility:10 or more sm (16+ km)
Ceiling:at least 12,000 feet AGL
Clouds:sky clear below 12,000 feet AGL
QC Flag:automated observation with no human augmentation
Text:KEDU 100615Z AUTO 23003KT 10SM CLR 23/13 A2985 RMK AO1
Temperature: 23.0°C ( 73°F)
Dewpoint: 13.0°C ( 55°F) [RH = 53%]
Pressure (altimeter):29.85 inches Hg (1010.9 mb)
Winds:from the SW (230 degrees) at 3 MPH (3 knots; 1.5 m/s)
Visibility:10 or more sm (16+ km)
Ceiling:at least 12,000 feet AGL
Clouds:sky clear below 12,000 feet AGL
QC Flag:automated observation with no human augmentation
Text:KEDU 100555Z AUTO 22004KT 10SM CLR 23/13 A2985 RMK AO1
Temperature: 23.0°C ( 73°F)
Dewpoint: 13.0°C ( 55°F) [RH = 53%]
Pressure (altimeter):29.85 inches Hg (1010.9 mb)
Winds:from the SW (220 degrees) at 5 MPH (4 knots; 2.1 m/s)
Visibility:10 or more sm (16+ km)
Ceiling:at least 12,000 feet AGL
Clouds:sky clear below 12,000 feet AGL
QC Flag:automated observation with no human augmentation
Text:KEDU 100535Z AUTO 00000KT 10SM CLR 24/13 A2985 RMK AO1
Temperature: 24.0°C ( 75°F)
Dewpoint: 13.0°C ( 55°F) [RH = 50%]
Pressure (altimeter):29.85 inches Hg (1010.9 mb)
Winds:calm
Visibility:10 or more sm (16+ km)
Ceiling:at least 12,000 feet AGL
Clouds:sky clear below 12,000 feet AGL
QC Flag:automated observation with no human augmentation
Text:KEDU 100515Z AUTO 23003KT 10SM CLR 25/13 A2985 RMK AO1
Temperature: 25.0°C ( 77°F)
Dewpoint: 13.0°C ( 55°F) [RH = 47%]
Pressure (altimeter):29.85 inches Hg (1010.9 mb)
Winds:from the SW (230 degrees) at 3 MPH (3 knots; 1.5 m/s)
Visibility:10 or more sm (16+ km)
Ceiling:at least 12,000 feet AGL
Clouds:sky clear below 12,000 feet AGL
QC Flag:automated observation with no human augmentation
Text:KEDU 100455Z AUTO 00000KT 10SM CLR 25/13 A2985 RMK AO1
Temperature: 25.0°C ( 77°F)
Dewpoint: 13.0°C ( 55°F) [RH = 47%]
Pressure (altimeter):29.85 inches Hg (1010.9 mb)
Winds:calm
Visibility:10 or more sm (16+ km)
Ceiling:at least 12,000 feet AGL
Clouds:sky clear below 12,000 feet AGL
QC Flag:automated observation with no human augmentation
Text:KEDU 100435Z AUTO 22003KT 10SM CLR 26/13 A2984 RMK AO1
Temperature: 26.0°C ( 79°F)
Dewpoint: 13.0°C ( 55°F) [RH = 45%]
Pressure (altimeter):29.84 inches Hg (1010.6 mb)
Winds:from the SW (220 degrees) at 3 MPH (3 knots; 1.5 m/s)
Visibility:10 or more sm (16+ km)
Ceiling:at least 12,000 feet AGL
Clouds:sky clear below 12,000 feet AGL
QC Flag:automated observation with no human augmentation
Text:KEDU 100415Z AUTO 20005KT 10SM CLR 26/14 A2983 RMK AO1
Temperature: 26.0°C ( 79°F)
Dewpoint: 14.0°C ( 57°F) [RH = 48%]
Pressure (altimeter):29.83 inches Hg (1010.2 mb)
Winds:from the SSW (200 degrees) at 6 MPH (5 knots; 2.6 m/s)
Visibility:10 or more sm (16+ km)
Ceiling:at least 12,000 feet AGL
Clouds:sky clear below 12,000 feet AGL
QC Flag:automated observation with no human augmentation
Text:KEDU 100355Z AUTO 19005KT 10SM CLR 27/14 A2982 RMK AO1
Temperature: 27.0°C ( 81°F)
Dewpoint: 14.0°C ( 57°F) [RH = 45%]
Pressure (altimeter):29.82 inches Hg (1009.9 mb)
Winds:from the S (190 degrees) at 6 MPH (5 knots; 2.6 m/s)
Visibility:10 or more sm (16+ km)
Ceiling:at least 12,000 feet AGL
Clouds:sky clear below 12,000 feet AGL
QC Flag:automated observation with no human augmentation
Text:KEDU 100335Z AUTO 19005KT 10SM CLR 28/15 A2981 RMK AO1
Temperature: 28.0°C ( 82°F)
Dewpoint: 15.0°C ( 59°F) [RH = 45%]
Pressure (altimeter):29.81 inches Hg (1009.6 mb)
Winds:from the S (190 degrees) at 6 MPH (5 knots; 2.6 m/s)
Visibility:10 or more sm (16+ km)
Ceiling:at least 12,000 feet AGL
Clouds:sky clear below 12,000 feet AGL
QC Flag:automated observation with no human augmentation
Text:KEDU 100315Z AUTO 22004KT 10SM CLR 30/14 A2981 RMK AO1
Temperature: 30.0°C ( 86°F)
Dewpoint: 14.0°C ( 57°F) [RH = 38%]
Pressure (altimeter):29.81 inches Hg (1009.6 mb)
Winds:from the SW (220 degrees) at 5 MPH (4 knots; 2.1 m/s)
Visibility:10 or more sm (16+ km)
Ceiling:at least 12,000 feet AGL
Clouds:sky clear below 12,000 feet AGL
QC Flag:automated observation with no human augmentation
Text:KEDU 100255Z AUTO 21003KT 10SM CLR 32/14 A2981 RMK AO1
Temperature: 32.0°C ( 90°F)
Dewpoint: 14.0°C ( 57°F) [RH = 34%]
Pressure (altimeter):29.81 inches Hg (1009.6 mb)
Winds:from the SSW (210 degrees) at 3 MPH (3 knots; 1.5 m/s)
Visibility:10 or more sm (16+ km)
Ceiling:at least 12,000 feet AGL
Clouds:sky clear below 12,000 feet AGL
QC Flag:automated observation with no human augmentation
Text:KEDU 100235Z AUTO 19005KT 10SM CLR 32/14 A2981 RMK AO1
Temperature: 32.0°C ( 90°F)
Dewpoint: 14.0°C ( 57°F) [RH = 34%]
Pressure (altimeter):29.81 inches Hg (1009.6 mb)
Winds:from the S (190 degrees) at 6 MPH (5 knots; 2.6 m/s)
Visibility:10 or more sm (16+ km)
Ceiling:at least 12,000 feet AGL
Clouds:sky clear below 12,000 feet AGL
QC Flag:automated observation with no human augmentation
Text:KEDU 100215Z AUTO 18006KT 10SM CLR 33/14 A2980 RMK AO1
Temperature: 33.0°C ( 91°F)
Dewpoint: 14.0°C ( 57°F) [RH = 32%]
Pressure (altimeter):29.80 inches Hg (1009.2 mb)
Winds:from the S (180 degrees) at 7 MPH (6 knots; 3.1 m/s)
Visibility:10 or more sm (16+ km)
Ceiling:at least 12,000 feet AGL
Clouds:sky clear below 12,000 feet AGL
QC Flag:automated observation with no human augmentation
Text:KEDU 100155Z AUTO 19005KT 10SM CLR 34/14 A2980 RMK AO1
Temperature: 34.0°C ( 93°F)
Dewpoint: 14.0°C ( 57°F) [RH = 30%]
Pressure (altimeter):29.80 inches Hg (1009.2 mb)
Winds:from the S (190 degrees) at 6 MPH (5 knots; 2.6 m/s)
Visibility:10 or more sm (16+ km)
Ceiling:at least 12,000 feet AGL
Clouds:sky clear below 12,000 feet AGL
QC Flag:automated observation with no human augmentation
Text:KEDU 100135Z AUTO 18008KT 10SM CLR 34/13 A2980 RMK AO1
Temperature: 34.0°C ( 93°F)
Dewpoint: 13.0°C ( 55°F) [RH = 28%]
Pressure (altimeter):29.80 inches Hg (1009.2 mb)
Winds:from the S (180 degrees) at 9 MPH (8 knots; 4.1 m/s)
Visibility:10 or more sm (16+ km)
Ceiling:at least 12,000 feet AGL
Clouds:sky clear below 12,000 feet AGL
QC Flag:automated observation with no human augmentation
Text:KEDU 100115Z AUTO 15007KT 10SM CLR 35/12 A2980 RMK AO1
Temperature: 35.0°C ( 95°F)
Dewpoint: 12.0°C ( 54°F) [RH = 25%]
Pressure (altimeter):29.80 inches Hg (1009.2 mb)
Winds:from the SSE (150 degrees) at 8 MPH (7 knots; 3.6 m/s)
Visibility:10 or more sm (16+ km)
Ceiling:at least 12,000 feet AGL
Clouds:sky clear below 12,000 feet AGL
QC Flag:automated observation with no human augmentation
Text:KEDU 100055Z AUTO 18007KT 10SM CLR 35/11 A2980 RMK AO1
Temperature: 35.0°C ( 95°F)
Dewpoint: 11.0°C ( 52°F) [RH = 23%]
Pressure (altimeter):29.80 inches Hg (1009.2 mb)
Winds:from the S (180 degrees) at 8 MPH (7 knots; 3.6 m/s)
Visibility:10 or more sm (16+ km)
Ceiling:at least 12,000 feet AGL
Clouds:sky clear below 12,000 feet AGL
QC Flag:automated observation with no human augmentation
Text:KEDU 100035Z AUTO 18008KT 10SM CLR 35/10 A2981 RMK AO1
Temperature: 35.0°C ( 95°F)
Dewpoint: 10.0°C ( 50°F) [RH = 22%]
Pressure (altimeter):29.81 inches Hg (1009.6 mb)
Winds:from the S (180 degrees) at 9 MPH (8 knots; 4.1 m/s)
Visibility:10 or more sm (16+ km)
Ceiling:at least 12,000 feet AGL
Clouds:sky clear below 12,000 feet AGL
QC Flag:automated observation with no human augmentation
Text:KEDU 100015Z AUTO 18008KT 10SM CLR 36/08 A2981 RMK AO1
Temperature: 36.0°C ( 97°F)
Dewpoint: 8.0°C ( 46°F) [RH = 18%]
Pressure (altimeter):29.81 inches Hg (1009.6 mb)
Winds:from the S (180 degrees) at 9 MPH (8 knots; 4.1 m/s)
Visibility:10 or more sm (16+ km)
Ceiling:at least 12,000 feet AGL
Clouds:sky clear below 12,000 feet AGL
QC Flag:automated observation with no human augmentation
Text:KEDU 092355Z AUTO 18008KT 10SM CLR 35/07 A2982 RMK AO1
Temperature: 35.0°C ( 95°F)
Dewpoint: 7.0°C ( 45°F) [RH = 18%]
Pressure (altimeter):29.82 inches Hg (1009.9 mb)
Winds:from the S (180 degrees) at 9 MPH (8 knots; 4.1 m/s)
Visibility:10 or more sm (16+ km)
Ceiling:at least 12,000 feet AGL
Clouds:sky clear below 12,000 feet AGL
QC Flag:automated observation with no human augmentation
Text:KEDU 092335Z AUTO 18007KT 10SM CLR 35/07 A2982 RMK AO1
Temperature: 35.0°C ( 95°F)
Dewpoint: 7.0°C ( 45°F) [RH = 18%]
Pressure (altimeter):29.82 inches Hg (1009.9 mb)
Winds:from the S (180 degrees) at 8 MPH (7 knots; 3.6 m/s)
Visibility:10 or more sm (16+ km)
Ceiling:at least 12,000 feet AGL
Clouds:sky clear below 12,000 feet AGL
QC Flag:automated observation with no human augmentation
Text:KEDU 092315Z AUTO 18006KT 10SM CLR 35/07 A2983 RMK AO1
Temperature: 35.0°C ( 95°F)
Dewpoint: 7.0°C ( 45°F) [RH = 18%]
Pressure (altimeter):29.83 inches Hg (1010.2 mb)
Winds:from the S (180 degrees) at 7 MPH (6 knots; 3.1 m/s)
Visibility:10 or more sm (16+ km)
Ceiling:at least 12,000 feet AGL
Clouds:sky clear below 12,000 feet AGL
QC Flag:automated observation with no human augmentation
Text:KEDU 092255Z AUTO 19006KT 9SM CLR 34/08 A2983 RMK AO1
Temperature: 34.0°C ( 93°F)
Dewpoint: 8.0°C ( 46°F) [RH = 20%]
Pressure (altimeter):29.83 inches Hg (1010.2 mb)
Winds:from the S (190 degrees) at 7 MPH (6 knots; 3.1 m/s)
Visibility: 9 sm ( 14 km)
Ceiling:at least 12,000 feet AGL
Clouds:sky clear below 12,000 feet AGL
QC Flag:automated observation with no human augmentation
Text:KEDU 092235Z AUTO 15007KT 10SM CLR 34/08 A2983 RMK AO1
Temperature: 34.0°C ( 93°F)
Dewpoint: 8.0°C ( 46°F) [RH = 20%]
Pressure (altimeter):29.83 inches Hg (1010.2 mb)
Winds:from the SSE (150 degrees) at 8 MPH (7 knots; 3.6 m/s)
Visibility:10 or more sm (16+ km)
Ceiling:at least 12,000 feet AGL
Clouds:sky clear below 12,000 feet AGL
QC Flag:automated observation with no human augmentation
Text:KEDU 092215Z AUTO 17005KT 10SM CLR 33/09 A2983 RMK AO1
Temperature: 33.0°C ( 91°F)
Dewpoint: 9.0°C ( 48°F) [RH = 23%]
Pressure (altimeter):29.83 inches Hg (1010.2 mb)
Winds:from the S (170 degrees) at 6 MPH (5 knots; 2.6 m/s)
Visibility:10 or more sm (16+ km)
Ceiling:at least 12,000 feet AGL
Clouds:sky clear below 12,000 feet AGL
QC Flag:automated observation with no human augmentation
Text:KEDU 092155Z AUTO 20004KT 10SM CLR 34/09 A2984 RMK AO1
Temperature: 34.0°C ( 93°F)
Dewpoint: 9.0°C ( 48°F) [RH = 22%]
Pressure (altimeter):29.84 inches Hg (1010.6 mb)
Winds:from the SSW (200 degrees) at 5 MPH (4 knots; 2.1 m/s)
Visibility:10 or more sm (16+ km)
Ceiling:at least 12,000 feet AGL
Clouds:sky clear below 12,000 feet AGL
QC Flag:automated observation with no human augmentation
Text:KEDU 092135Z AUTO 21005KT 10SM CLR 33/11 A2984 RMK AO1
Temperature: 33.0°C ( 91°F)
Dewpoint: 11.0°C ( 52°F) [RH = 26%]
Pressure (altimeter):29.84 inches Hg (1010.6 mb)
Winds:from the SSW (210 degrees) at 6 MPH (5 knots; 2.6 m/s)
Visibility:10 or more sm (16+ km)
Ceiling:at least 12,000 feet AGL
Clouds:sky clear below 12,000 feet AGL
QC Flag:automated observation with no human augmentation
Text:KEDU 092115Z AUTO 00000KT 10SM CLR 32/12 A2985 RMK AO1
Temperature: 32.0°C ( 90°F)
Dewpoint: 12.0°C ( 54°F) [RH = 30%]
Pressure (altimeter):29.85 inches Hg (1010.9 mb)
Winds:calm
Visibility:10 or more sm (16+ km)
Ceiling:at least 12,000 feet AGL
Clouds:sky clear below 12,000 feet AGL
QC Flag:automated observation with no human augmentation
Text:KEDU 092055Z AUTO 23005KT 10SM CLR 32/12 A2985 RMK AO1
Temperature: 32.0°C ( 90°F)
Dewpoint: 12.0°C ( 54°F) [RH = 30%]
Pressure (altimeter):29.85 inches Hg (1010.9 mb)
Winds:from the SW (230 degrees) at 6 MPH (5 knots; 2.6 m/s)
Visibility:10 or more sm (16+ km)
Ceiling:at least 12,000 feet AGL
Clouds:sky clear below 12,000 feet AGL
QC Flag:automated observation with no human augmentation
Text:KEDU 092035Z AUTO 21004KT 9SM CLR 32/13 A2986 RMK AO1
Temperature: 32.0°C ( 90°F)
Dewpoint: 13.0°C ( 55°F) [RH = 32%]
Pressure (altimeter):29.86 inches Hg (1011.3 mb)
Winds:from the SSW (210 degrees) at 5 MPH (4 knots; 2.1 m/s)
Visibility: 9 sm ( 14 km)
Ceiling:at least 12,000 feet AGL
Clouds:sky clear below 12,000 feet AGL
QC Flag:automated observation with no human augmentation
Text:KEDU 092015Z AUTO 25005KT 10SM CLR 32/13 A2986 RMK AO1
Temperature: 32.0°C ( 90°F)
Dewpoint: 13.0°C ( 55°F) [RH = 32%]
Pressure (altimeter):29.86 inches Hg (1011.3 mb)
Winds:from the WSW (250 degrees) at 6 MPH (5 knots; 2.6 m/s)
Visibility:10 or more sm (16+ km)
Ceiling:at least 12,000 feet AGL
Clouds:sky clear below 12,000 feet AGL
QC Flag:automated observation with no human augmentation
Text:KEDU 091955Z AUTO 18003KT 10SM CLR 30/13 A2987 RMK AO1
Temperature: 30.0°C ( 86°F)
Dewpoint: 13.0°C ( 55°F) [RH = 35%]
Pressure (altimeter):29.87 inches Hg (1011.6 mb)
Winds:from the S (180 degrees) at 3 MPH (3 knots; 1.5 m/s)
Visibility:10 or more sm (16+ km)
Ceiling:at least 12,000 feet AGL
Clouds:sky clear below 12,000 feet AGL
QC Flag:automated observation with no human augmentation
Text:KEDU 091935Z AUTO 17003KT 10SM CLR 30/14 A2987 RMK AO1
Temperature: 30.0°C ( 86°F)
Dewpoint: 14.0°C ( 57°F) [RH = 38%]
Pressure (altimeter):29.87 inches Hg (1011.6 mb)
Winds:from the S (170 degrees) at 3 MPH (3 knots; 1.5 m/s)
Visibility:10 or more sm (16+ km)
Ceiling:at least 12,000 feet AGL
Clouds:sky clear below 12,000 feet AGL
QC Flag:automated observation with no human augmentation
Text:KEDU 091915Z AUTO 22004KT 10SM CLR 30/13 A2987 RMK AO1
Temperature: 30.0°C ( 86°F)
Dewpoint: 13.0°C ( 55°F) [RH = 35%]
Pressure (altimeter):29.87 inches Hg (1011.6 mb)
Winds:from the SW (220 degrees) at 5 MPH (4 knots; 2.1 m/s)
Visibility:10 or more sm (16+ km)
Ceiling:at least 12,000 feet AGL
Clouds:sky clear below 12,000 feet AGL
QC Flag:automated observation with no human augmentation
Text:KEDU 091855Z AUTO 00000KT 10SM CLR 29/13 A2987 RMK AO1
Temperature: 29.0°C ( 84°F)
Dewpoint: 13.0°C ( 55°F) [RH = 37%]
Pressure (altimeter):29.87 inches Hg (1011.6 mb)
Winds:calm
Visibility:10 or more sm (16+ km)
Ceiling:at least 12,000 feet AGL
Clouds:sky clear below 12,000 feet AGL
QC Flag:automated observation with no human augmentation
Text:KEDU 091835Z AUTO 22004KT 10SM CLR 28/14 A2988 RMK AO1
Temperature: 28.0°C ( 82°F)
Dewpoint: 14.0°C ( 57°F) [RH = 42%]
Pressure (altimeter):29.88 inches Hg (1011.9 mb)
Winds:from the SW (220 degrees) at 5 MPH (4 knots; 2.1 m/s)
Visibility:10 or more sm (16+ km)
Ceiling:at least 12,000 feet AGL
Clouds:sky clear below 12,000 feet AGL
QC Flag:automated observation with no human augmentation
Text:KEDU 091815Z AUTO 12003KT 10SM CLR 27/13 A2988 RMK AO1
Temperature: 27.0°C ( 81°F)
Dewpoint: 13.0°C ( 55°F) [RH = 42%]
Pressure (altimeter):29.88 inches Hg (1011.9 mb)
Winds:from the ESE (120 degrees) at 3 MPH (3 knots; 1.5 m/s)
Visibility:10 or more sm (16+ km)
Ceiling:at least 12,000 feet AGL
Clouds:sky clear below 12,000 feet AGL
QC Flag:automated observation with no human augmentation
Text:KEDU 091755Z AUTO 16003KT 9SM CLR 25/14 A2987 RMK AO1
Temperature: 25.0°C ( 77°F)
Dewpoint: 14.0°C ( 57°F) [RH = 50%]
Pressure (altimeter):29.87 inches Hg (1011.6 mb)
Winds:from the SSE (160 degrees) at 3 MPH (3 knots; 1.5 m/s)
Visibility: 9 sm ( 14 km)
Ceiling:at least 12,000 feet AGL
Clouds:sky clear below 12,000 feet AGL
QC Flag:automated observation with no human augmentation
Text:KEDU 091735Z AUTO 16003KT 10SM CLR 24/13 A2987 RMK AO1
Temperature: 24.0°C ( 75°F)
Dewpoint: 13.0°C ( 55°F) [RH = 50%]
Pressure (altimeter):29.87 inches Hg (1011.6 mb)
Winds:from the SSE (160 degrees) at 3 MPH (3 knots; 1.5 m/s)
Visibility:10 or more sm (16+ km)
Ceiling:at least 12,000 feet AGL
Clouds:sky clear below 12,000 feet AGL
QC Flag:automated observation with no human augmentation
Text:KEDU 091715Z AUTO 00000KT 9SM CLR 23/13 A2987 RMK AO1
Temperature: 23.0°C ( 73°F)
Dewpoint: 13.0°C ( 55°F) [RH = 53%]
Pressure (altimeter):29.87 inches Hg (1011.6 mb)
Winds:calm
Visibility: 9 sm ( 14 km)
Ceiling:at least 12,000 feet AGL
Clouds:sky clear below 12,000 feet AGL
QC Flag:automated observation with no human augmentation
Text:KEDU 091655Z AUTO 00000KT 9SM CLR 22/12 A2987 RMK AO1
Temperature: 22.0°C ( 72°F)
Dewpoint: 12.0°C ( 54°F) [RH = 53%]
Pressure (altimeter):29.87 inches Hg (1011.6 mb)
Winds:calm
Visibility: 9 sm ( 14 km)
Ceiling:at least 12,000 feet AGL
Clouds:sky clear below 12,000 feet AGL
QC Flag:automated observation with no human augmentation
Text:KEDU 091635Z AUTO 00000KT 9SM CLR 21/12 A2988 RMK AO1
Temperature: 21.0°C ( 70°F)
Dewpoint: 12.0°C ( 54°F) [RH = 56%]
Pressure (altimeter):29.88 inches Hg (1011.9 mb)
Winds:calm
Visibility: 9 sm ( 14 km)
Ceiling:at least 12,000 feet AGL
Clouds:sky clear below 12,000 feet AGL
QC Flag:automated observation with no human augmentation
Text:KEDU 091615Z AUTO 00000KT 9SM CLR 20/12 A2987 RMK AO1
Temperature: 20.0°C ( 68°F)
Dewpoint: 12.0°C ( 54°F) [RH = 60%]
Pressure (altimeter):29.87 inches Hg (1011.6 mb)
Winds:calm
Visibility: 9 sm ( 14 km)
Ceiling:at least 12,000 feet AGL
Clouds:sky clear below 12,000 feet AGL
QC Flag:automated observation with no human augmentation
Text:KEDU 091555Z AUTO 04003KT 8SM CLR 19/12 A2987 RMK AO1
Temperature: 19.0°C ( 66°F)
Dewpoint: 12.0°C ( 54°F) [RH = 64%]
Pressure (altimeter):29.87 inches Hg (1011.6 mb)
Winds:from the NE (40 degrees) at 3 MPH (3 knots; 1.5 m/s)
Visibility: 8 sm ( 13 km)
Ceiling:at least 12,000 feet AGL
Clouds:sky clear below 12,000 feet AGL
QC Flag:automated observation with no human augmentation
Text:KEDU 091535Z AUTO 03005KT 9SM CLR 18/12 A2986 RMK AO1
Temperature: 18.0°C ( 64°F)
Dewpoint: 12.0°C ( 54°F) [RH = 68%]
Pressure (altimeter):29.86 inches Hg (1011.3 mb)
Winds:from the NNE (30 degrees) at 6 MPH (5 knots; 2.6 m/s)
Visibility: 9 sm ( 14 km)
Ceiling:at least 12,000 feet AGL
Clouds:sky clear below 12,000 feet AGL
QC Flag:automated observation with no human augmentation
Text:KEDU 091515Z AUTO 35005KT 9SM CLR 17/12 A2986 RMK AO1
Temperature: 17.0°C ( 63°F)
Dewpoint: 12.0°C ( 54°F) [RH = 72%]
Pressure (altimeter):29.86 inches Hg (1011.3 mb)
Winds:from the N (350 degrees) at 6 MPH (5 knots; 2.6 m/s)
Visibility: 9 sm ( 14 km)
Ceiling:at least 12,000 feet AGL
Clouds:sky clear below 12,000 feet AGL
QC Flag:automated observation with no human augmentation
Text:KEDU 091455Z AUTO 34005KT 8SM CLR 17/12 A2986 RMK AO1
Temperature: 17.0°C ( 63°F)
Dewpoint: 12.0°C ( 54°F) [RH = 72%]
Pressure (altimeter):29.86 inches Hg (1011.3 mb)
Winds:from the NNW (340 degrees) at 6 MPH (5 knots; 2.6 m/s)
Visibility: 8 sm ( 13 km)
Ceiling:at least 12,000 feet AGL
Clouds:sky clear below 12,000 feet AGL
QC Flag:automated observation with no human augmentation
Text:KEDU 091435Z AUTO 34003KT 8SM CLR 15/12 A2985 RMK AO1
Temperature: 15.0°C ( 59°F)
Dewpoint: 12.0°C ( 54°F) [RH = 82%]
Pressure (altimeter):29.85 inches Hg (1010.9 mb)
Winds:from the NNW (340 degrees) at 3 MPH (3 knots; 1.5 m/s)
Visibility: 8 sm ( 13 km)
Ceiling:at least 12,000 feet AGL
Clouds:sky clear below 12,000 feet AGL
QC Flag:automated observation with no human augmentation
Text:KEDU 091415Z AUTO 00000KT 8SM CLR 15/12 A2985 RMK AO1
Temperature: 15.0°C ( 59°F)
Dewpoint: 12.0°C ( 54°F) [RH = 82%]
Pressure (altimeter):29.85 inches Hg (1010.9 mb)
Winds:calm
Visibility: 8 sm ( 13 km)
Ceiling:at least 12,000 feet AGL
Clouds:sky clear below 12,000 feet AGL
QC Flag:automated observation with no human augmentation
Text:KEDU 091355Z AUTO 00000KT 7SM CLR 14/11 A2985 RMK AO1
Temperature: 14.0°C ( 57°F)
Dewpoint: 11.0°C ( 52°F) [RH = 82%]
Pressure (altimeter):29.85 inches Hg (1010.9 mb)
Winds:calm
Visibility: 7 sm ( 11 km)
Ceiling:at least 12,000 feet AGL
Clouds:sky clear below 12,000 feet AGL
QC Flag:automated observation with no human augmentation
Text:KEDU 091335Z AUTO 00000KT 8SM CLR 13/10 A2984 RMK AO1
Temperature: 13.0°C ( 55°F)
Dewpoint: 10.0°C ( 50°F) [RH = 82%]
Pressure (altimeter):29.84 inches Hg (1010.6 mb)
Winds:calm
Visibility: 8 sm ( 13 km)
Ceiling:at least 12,000 feet AGL
Clouds:sky clear below 12,000 feet AGL
QC Flag:automated observation with no human augmentation
Text:KEDU 091315Z AUTO 00000KT 8SM CLR 13/11 A2983 RMK AO1
Temperature: 13.0°C ( 55°F)
Dewpoint: 11.0°C ( 52°F) [RH = 88%]
Pressure (altimeter):29.83 inches Hg (1010.2 mb)
Winds:calm
Visibility: 8 sm ( 13 km)
Ceiling:at least 12,000 feet AGL
Clouds:sky clear below 12,000 feet AGL
QC Flag:automated observation with no human augmentation
Text:KEDU 091255Z AUTO 33003KT 8SM CLR 13/11 A2983 RMK AO1
Temperature: 13.0°C ( 55°F)
Dewpoint: 11.0°C ( 52°F) [RH = 88%]
Pressure (altimeter):29.83 inches Hg (1010.2 mb)
Winds:from the NNW (330 degrees) at 3 MPH (3 knots; 1.5 m/s)
Visibility: 8 sm ( 13 km)
Ceiling:at least 12,000 feet AGL
Clouds:sky clear below 12,000 feet AGL
QC Flag:automated observation with no human augmentation
Text:KEDU 091235Z AUTO 00000KT 10SM CLR 13/11 A2983 RMK AO1
Temperature: 13.0°C ( 55°F)
Dewpoint: 11.0°C ( 52°F) [RH = 88%]
Pressure (altimeter):29.83 inches Hg (1010.2 mb)
Winds:calm
Visibility:10 or more sm (16+ km)
Ceiling:at least 12,000 feet AGL
Clouds:sky clear below 12,000 feet AGL
QC Flag:automated observation with no human augmentation
Text:KEDU 091215Z AUTO 00000KT 10SM CLR 13/11 A2982 RMK AO1
Temperature: 13.0°C ( 55°F)
Dewpoint: 11.0°C ( 52°F) [RH = 88%]
Pressure (altimeter):29.82 inches Hg (1009.9 mb)
Winds:calm
Visibility:10 or more sm (16+ km)
Ceiling:at least 12,000 feet AGL
Clouds:sky clear below 12,000 feet AGL
QC Flag:automated observation with no human augmentation
Text:KEDU 091155Z AUTO 00000KT 9SM CLR 13/11 A2982 RMK AO1
Temperature: 13.0°C ( 55°F)
Dewpoint: 11.0°C ( 52°F) [RH = 88%]
Pressure (altimeter):29.82 inches Hg (1009.9 mb)
Winds:calm
Visibility: 9 sm ( 14 km)
Ceiling:at least 12,000 feet AGL
Clouds:sky clear below 12,000 feet AGL
QC Flag:automated observation with no human augmentation
Text:KEDU 091135Z AUTO 00000KT 9SM CLR 13/11 A2982 RMK AO1
Temperature: 13.0°C ( 55°F)
Dewpoint: 11.0°C ( 52°F) [RH = 88%]
Pressure (altimeter):29.82 inches Hg (1009.9 mb)
Winds:calm
Visibility: 9 sm ( 14 km)
Ceiling:at least 12,000 feet AGL
Clouds:sky clear below 12,000 feet AGL
QC Flag:automated observation with no human augmentation
Text:KEDU 091115Z AUTO 13003KT 10SM CLR 13/11 A2982 RMK AO1
Temperature: 13.0°C ( 55°F)
Dewpoint: 11.0°C ( 52°F) [RH = 88%]
Pressure (altimeter):29.82 inches Hg (1009.9 mb)
Winds:from the SE (130 degrees) at 3 MPH (3 knots; 1.5 m/s)
Visibility:10 or more sm (16+ km)
Ceiling:at least 12,000 feet AGL
Clouds:sky clear below 12,000 feet AGL
QC Flag:automated observation with no human augmentation
Text:KEDU 091055Z AUTO 14004KT 9SM CLR 14/11 A2982 RMK AO1
Temperature: 14.0°C ( 57°F)
Dewpoint: 11.0°C ( 52°F) [RH = 82%]
Pressure (altimeter):29.82 inches Hg (1009.9 mb)
Winds:from the SE (140 degrees) at 5 MPH (4 knots; 2.1 m/s)
Visibility: 9 sm ( 14 km)
Ceiling:at least 12,000 feet AGL
Clouds:sky clear below 12,000 feet AGL
QC Flag:automated observation with no human augmentation
Text:KEDU 091035Z AUTO 00000KT 10SM CLR 14/11 A2981 RMK AO1
Temperature: 14.0°C ( 57°F)
Dewpoint: 11.0°C ( 52°F) [RH = 82%]
Pressure (altimeter):29.81 inches Hg (1009.6 mb)
Winds:calm
Visibility:10 or more sm (16+ km)
Ceiling:at least 12,000 feet AGL
Clouds:sky clear below 12,000 feet AGL
QC Flag:automated observation with no human augmentation
Text:KEDU 091015Z AUTO 12004KT 9SM CLR 14/11 A2981 RMK AO1
Temperature: 14.0°C ( 57°F)
Dewpoint: 11.0°C ( 52°F) [RH = 82%]
Pressure (altimeter):29.81 inches Hg (1009.6 mb)
Winds:from the ESE (120 degrees) at 5 MPH (4 knots; 2.1 m/s)
Visibility: 9 sm ( 14 km)
Ceiling:at least 12,000 feet AGL
Clouds:sky clear below 12,000 feet AGL
QC Flag:automated observation with no human augmentation
Text:KEDU 090955Z AUTO 14004KT 10SM CLR 14/11 A2981 RMK AO1
Temperature: 14.0°C ( 57°F)
Dewpoint: 11.0°C ( 52°F) [RH = 82%]
Pressure (altimeter):29.81 inches Hg (1009.6 mb)
Winds:from the SE (140 degrees) at 5 MPH (4 knots; 2.1 m/s)
Visibility:10 or more sm (16+ km)
Ceiling:at least 12,000 feet AGL
Clouds:sky clear below 12,000 feet AGL
QC Flag:automated observation with no human augmentation
Text:KEDU 090935Z AUTO 13005KT 10SM CLR 14/11 A2981 RMK AO1
Temperature: 14.0°C ( 57°F)
Dewpoint: 11.0°C ( 52°F) [RH = 82%]
Pressure (altimeter):29.81 inches Hg (1009.6 mb)
Winds:from the SE (130 degrees) at 6 MPH (5 knots; 2.6 m/s)
Visibility:10 or more sm (16+ km)
Ceiling:at least 12,000 feet AGL
Clouds:sky clear below 12,000 feet AGL
QC Flag:automated observation with no human augmentation
Text:KEDU 090915Z AUTO 13004KT 10SM CLR 15/11 A2981 RMK AO1
Temperature: 15.0°C ( 59°F)
Dewpoint: 11.0°C ( 52°F) [RH = 77%]
Pressure (altimeter):29.81 inches Hg (1009.6 mb)
Winds:from the SE (130 degrees) at 5 MPH (4 knots; 2.1 m/s)
Visibility:10 or more sm (16+ km)
Ceiling:at least 12,000 feet AGL
Clouds:sky clear below 12,000 feet AGL
QC Flag:automated observation with no human augmentation
Text:KEDU 090855Z AUTO 13004KT 10SM CLR 15/11 A2980 RMK AO1
Temperature: 15.0°C ( 59°F)
Dewpoint: 11.0°C ( 52°F) [RH = 77%]
Pressure (altimeter):29.80 inches Hg (1009.2 mb)
Winds:from the SE (130 degrees) at 5 MPH (4 knots; 2.1 m/s)
Visibility:10 or more sm (16+ km)
Ceiling:at least 12,000 feet AGL
Clouds:sky clear below 12,000 feet AGL
QC Flag:automated observation with no human augmentation
Text:KEDU 090835Z AUTO 15003KT 10SM CLR 15/11 A2980 RMK AO1
Temperature: 15.0°C ( 59°F)
Dewpoint: 11.0°C ( 52°F) [RH = 77%]
Pressure (altimeter):29.80 inches Hg (1009.2 mb)
Winds:from the SSE (150 degrees) at 3 MPH (3 knots; 1.5 m/s)
Visibility:10 or more sm (16+ km)
Ceiling:at least 12,000 feet AGL
Clouds:sky clear below 12,000 feet AGL
QC Flag:automated observation with no human augmentation
Text:KEDU 090815Z AUTO 14004KT 10SM CLR 16/11 A2980 RMK AO1
Temperature: 16.0°C ( 61°F)
Dewpoint: 11.0°C ( 52°F) [RH = 72%]
Pressure (altimeter):29.80 inches Hg (1009.2 mb)
Winds:from the SE (140 degrees) at 5 MPH (4 knots; 2.1 m/s)
Visibility:10 or more sm (16+ km)
Ceiling:at least 12,000 feet AGL
Clouds:sky clear below 12,000 feet AGL
QC Flag:automated observation with no human augmentation
Text:KEDU 090755Z AUTO 16003KT 10SM CLR 16/11 A2980 RMK AO1
Temperature: 16.0°C ( 61°F)
Dewpoint: 11.0°C ( 52°F) [RH = 72%]
Pressure (altimeter):29.80 inches Hg (1009.2 mb)
Winds:from the SSE (160 degrees) at 3 MPH (3 knots; 1.5 m/s)
Visibility:10 or more sm (16+ km)
Ceiling:at least 12,000 feet AGL
Clouds:sky clear below 12,000 feet AGL
QC Flag:automated observation with no human augmentation
Text:KEDU 090735Z AUTO 16004KT 10SM CLR 17/11 A2980 RMK AO1
Temperature: 17.0°C ( 63°F)
Dewpoint: 11.0°C ( 52°F) [RH = 68%]
Pressure (altimeter):29.80 inches Hg (1009.2 mb)
Winds:from the SSE (160 degrees) at 5 MPH (4 knots; 2.1 m/s)
Visibility:10 or more sm (16+ km)
Ceiling:at least 12,000 feet AGL
Clouds:sky clear below 12,000 feet AGL
QC Flag:automated observation with no human augmentation
Text:KEDU 090715Z AUTO 16004KT 10SM CLR 17/11 A2979 RMK AO1
Temperature: 17.0°C ( 63°F)
Dewpoint: 11.0°C ( 52°F) [RH = 68%]
Pressure (altimeter):29.79 inches Hg (1008.9 mb)
Winds:from the SSE (160 degrees) at 5 MPH (4 knots; 2.1 m/s)
Visibility:10 or more sm (16+ km)
Ceiling:at least 12,000 feet AGL
Clouds:sky clear below 12,000 feet AGL
QC Flag:automated observation with no human augmentation
Text:KEDU 090655Z AUTO 18005KT 10SM CLR 17/10 A2979 RMK AO1
Temperature: 17.0°C ( 63°F)
Dewpoint: 10.0°C ( 50°F) [RH = 63%]
Pressure (altimeter):29.79 inches Hg (1008.9 mb)
Winds:from the S (180 degrees) at 6 MPH (5 knots; 2.6 m/s)
Visibility:10 or more sm (16+ km)
Ceiling:at least 12,000 feet AGL
Clouds:sky clear below 12,000 feet AGL
QC Flag:automated observation with no human augmentation
Text:KEDU 090635Z AUTO 19005KT 10SM CLR 18/10 A2979 RMK AO1
Temperature: 18.0°C ( 64°F)
Dewpoint: 10.0°C ( 50°F) [RH = 59%]
Pressure (altimeter):29.79 inches Hg (1008.9 mb)
Winds:from the S (190 degrees) at 6 MPH (5 knots; 2.6 m/s)
Visibility:10 or more sm (16+ km)
Ceiling:at least 12,000 feet AGL
Clouds:sky clear below 12,000 feet AGL
QC Flag:automated observation with no human augmentation
Text:KEDU 090615Z AUTO 17006KT 10SM CLR 18/11 A2979 RMK AO1
Temperature: 18.0°C ( 64°F)
Dewpoint: 11.0°C ( 52°F) [RH = 64%]
Pressure (altimeter):29.79 inches Hg (1008.9 mb)
Winds:from the S (170 degrees) at 7 MPH (6 knots; 3.1 m/s)
Visibility:10 or more sm (16+ km)
Ceiling:at least 12,000 feet AGL
Clouds:sky clear below 12,000 feet AGL
QC Flag:automated observation with no human augmentation
Text:KEDU 090555Z AUTO 17005KT 10SM CLR 19/11 A2978 RMK AO1
Temperature: 19.0°C ( 66°F)
Dewpoint: 11.0°C ( 52°F) [RH = 60%]
Pressure (altimeter):29.78 inches Hg (1008.5 mb)
Winds:from the S (170 degrees) at 6 MPH (5 knots; 2.6 m/s)
Visibility:10 or more sm (16+ km)
Ceiling:at least 12,000 feet AGL
Clouds:sky clear below 12,000 feet AGL
QC Flag:automated observation with no human augmentation
Text:KEDU 090535Z AUTO 15004KT 10SM CLR 19/11 A2978 RMK AO1
Temperature: 19.0°C ( 66°F)
Dewpoint: 11.0°C ( 52°F) [RH = 60%]
Pressure (altimeter):29.78 inches Hg (1008.5 mb)
Winds:from the SSE (150 degrees) at 5 MPH (4 knots; 2.1 m/s)
Visibility:10 or more sm (16+ km)
Ceiling:at least 12,000 feet AGL
Clouds:sky clear below 12,000 feet AGL
QC Flag:automated observation with no human augmentation
Text:KEDU 090515Z AUTO 16004KT 10SM CLR 20/11 A2978 RMK AO1
Temperature: 20.0°C ( 68°F)
Dewpoint: 11.0°C ( 52°F) [RH = 56%]
Pressure (altimeter):29.78 inches Hg (1008.5 mb)
Winds:from the SSE (160 degrees) at 5 MPH (4 knots; 2.1 m/s)
Visibility:10 or more sm (16+ km)
Ceiling:at least 12,000 feet AGL
Clouds:sky clear below 12,000 feet AGL
QC Flag:automated observation with no human augmentation
Text:KEDU 090455Z AUTO 16004KT 10SM CLR 21/11 A2978 RMK AO1
Temperature: 21.0°C ( 70°F)
Dewpoint: 11.0°C ( 52°F) [RH = 53%]
Pressure (altimeter):29.78 inches Hg (1008.5 mb)
Winds:from the SSE (160 degrees) at 5 MPH (4 knots; 2.1 m/s)
Visibility:10 or more sm (16+ km)
Ceiling:at least 12,000 feet AGL
Clouds:sky clear below 12,000 feet AGL
QC Flag:automated observation with no human augmentation
Text:KEDU 090435Z AUTO 18006KT 10SM CLR 22/12 A2977 RMK AO1
Temperature: 22.0°C ( 72°F)
Dewpoint: 12.0°C ( 54°F) [RH = 53%]
Pressure (altimeter):29.77 inches Hg (1008.2 mb)
Winds:from the S (180 degrees) at 7 MPH (6 knots; 3.1 m/s)
Visibility:10 or more sm (16+ km)
Ceiling:at least 12,000 feet AGL
Clouds:sky clear below 12,000 feet AGL
QC Flag:automated observation with no human augmentation
Text:KEDU 090415Z AUTO 18005KT 10SM CLR 23/12 A2977 RMK AO1
Temperature: 23.0°C ( 73°F)
Dewpoint: 12.0°C ( 54°F) [RH = 50%]
Pressure (altimeter):29.77 inches Hg (1008.2 mb)
Winds:from the S (180 degrees) at 6 MPH (5 knots; 2.6 m/s)
Visibility:10 or more sm (16+ km)
Ceiling:at least 12,000 feet AGL
Clouds:sky clear below 12,000 feet AGL
QC Flag:automated observation with no human augmentation
Text:KEDU 090355Z AUTO 18006KT 10SM CLR 24/12 A2976 RMK AO1
Temperature: 24.0°C ( 75°F)
Dewpoint: 12.0°C ( 54°F) [RH = 47%]
Pressure (altimeter):29.76 inches Hg (1007.9 mb)
Winds:from the S (180 degrees) at 7 MPH (6 knots; 3.1 m/s)
Visibility:10 or more sm (16+ km)
Ceiling:at least 12,000 feet AGL
Clouds:sky clear below 12,000 feet AGL
QC Flag:automated observation with no human augmentation
Text:KEDU 090335Z AUTO 20005KT 10SM CLR 26/12 A2976 RMK AO1
Temperature: 26.0°C ( 79°F)
Dewpoint: 12.0°C ( 54°F) [RH = 42%]
Pressure (altimeter):29.76 inches Hg (1007.9 mb)
Winds:from the SSW (200 degrees) at 6 MPH (5 knots; 2.6 m/s)
Visibility:10 or more sm (16+ km)
Ceiling:at least 12,000 feet AGL
Clouds:sky clear below 12,000 feet AGL
QC Flag:automated observation with no human augmentation
Text:KEDU 090315Z AUTO 19006KT 10SM CLR 27/13 A2976 RMK AO1
Temperature: 27.0°C ( 81°F)
Dewpoint: 13.0°C ( 55°F) [RH = 42%]
Pressure (altimeter):29.76 inches Hg (1007.9 mb)
Winds:from the S (190 degrees) at 7 MPH (6 knots; 3.1 m/s)
Visibility:10 or more sm (16+ km)
Ceiling:at least 12,000 feet AGL
Clouds:sky clear below 12,000 feet AGL
QC Flag:automated observation with no human augmentation
Text:KEDU 090255Z AUTO 18006KT 10SM CLR 29/13 A2976 RMK AO1
Temperature: 29.0°C ( 84°F)
Dewpoint: 13.0°C ( 55°F) [RH = 37%]
Pressure (altimeter):29.76 inches Hg (1007.9 mb)
Winds:from the S (180 degrees) at 7 MPH (6 knots; 3.1 m/s)
Visibility:10 or more sm (16+ km)
Ceiling:at least 12,000 feet AGL
Clouds:sky clear below 12,000 feet AGL
QC Flag:automated observation with no human augmentation
Text:KEDU 090235Z AUTO 20006KT 10SM CLR 30/12 A2976 RMK AO1
Temperature: 30.0°C ( 86°F)
Dewpoint: 12.0°C ( 54°F) [RH = 33%]
Pressure (altimeter):29.76 inches Hg (1007.9 mb)
Winds:from the SSW (200 degrees) at 7 MPH (6 knots; 3.1 m/s)
Visibility:10 or more sm (16+ km)
Ceiling:at least 12,000 feet AGL
Clouds:sky clear below 12,000 feet AGL
QC Flag:automated observation with no human augmentation